Briefing drone pour Saint-cernin

Rechercher une autre localisation

Conditions de vol :


Nous sommes le : Samedi 28 mai 2022
Il est 20:36 UTC (22:36 LT)

Lever de soleil : 03:42 UTC (05:42 LT)
Coucher de soleil : 19:52 UTC (21:52 LT)

Météo

L'essentiel des conditions de vol

VIGILANCE MÉTÉO FRANCE - Cantal (15)
Pas de vigilances particulieres
METAR de LFLW
LFLW 282000Z AUTO 02004KT 350V050 CAVOK 15/05 Q1015

Date d'émission: 28/05/2022
Heure d'émission: 20:00 UTC
Vent: 020° (variable du 350° au 050°) pour 4 KT (7 km/h)
Visibilité horizontale: > 10 km
Plafond : Plafond et visibilité OK (CAVOK)
Température: 15 °C
Point de rosée: 5 °C
Humidité: 51%
Pression (QNH): 1015 hPa
Prévision 24h pour Aurillac (9 km)
Vent : 338° pour 3 KT (10 km/h)
Temperature Maxi: 21 °C
Temperature Min: 21 °C
Humidité : 23%
Condition : Ciel dégagé



Warning: count(): Parameter must be an array or an object that implements Countable in /homepages/6/d509196549/htdocs/droneoxygene/briefing.php on line 743
WEBCAM POUR SAINT-CERNIN

Réglementation

Voler en sécurité

CARTES AERONAUTIQUE 1/500.000
CARTES VAC (LFLW)
SUP AIP




Chargement des AIP...
NOTAM (SAINT-CERNIN + Terrain à proximité / FIR )




Chargement des NOTAMS...
CONTACT PREFECTURE 15


Avertissement : Les données mises à disposition sont indicatives. Oxygène Drone ne pourra être tenu responsable de dégâts causés aux biens et aux personnes.